Time;durP1;ratioP1;P1;durP2;ratioP2;P2;SDS_P1;SDS_P2;PMS_P1;PMS_P2;Temp;Humidity;BMP_temperature;BMP_pressure;BME280_temperature;BME280_humidity;BME280_pressure;Samples;Min_cycle;Max_cycle;Signal;HPM_P1;HPM_P2
2021/12/06 00:01:29;;;;;;;1.85;1.73;;;;;;;-16.57;87.10;102948.44;5074425;28;20048;-62
2021/12/06 00:04:00;;;;;;;2.00;1.83;;;;;;;-16.43;87.89;102933.88;5073659;28;20074;-61
2021/12/06 00:06:33;;;;;;;1.10;1.10;;;;;;;-16.32;88.51;102941.53;5074116;28;20051;-62
2021/12/06 00:09:02;;;;;;;1.80;1.70;;;;;;;-16.30;87.96;102931.72;5073729;28;20048;-61
2021/12/06 00:11:29;;;;;;;1.10;1.10;;;;;;;-16.53;88.59;102939.66;5073878;28;20185;-62
2021/12/06 00:13:56;;;;;;;1.63;1.40;;;;;;;-16.83;87.57;102945.28;5073417;28;20493;-61
2021/12/06 00:16:24;;;;;;;1.63;1.40;;;;;;;-16.74;87.37;102951.06;5073296;28;20242;-61
2021/12/06 00:18:52;;;;;;;1.67;1.58;;;;;;;-16.99;86.22;102970.41;5073488;28;20114;-61
2021/12/06 00:21:20;;;;;;;1.63;1.52;;;;;;;-17.13;87.44;102971.63;5073518;28;20143;-61
2021/12/06 00:23:49;;;;;;;1.20;1.20;;;;;;;-17.43;86.05;102965.56;5073290;28;20561;-61
2021/12/06 00:26:16;;;;;;;1.75;1.63;;;;;;;-17.21;87.33;102984.94;5073268;28;20139;-61
2021/12/06 00:28:45;;;;;;;1.48;1.38;;;;;;;-17.40;87.80;102955.88;5073350;28;20044;-61
2021/12/06 00:31:14;;;;;;;1.60;1.52;;;;;;;-17.56;88.11;102962.66;5073409;28;20102;-61
2021/12/06 00:33:42;;;;;;;3.25;1.67;;;;;;;-17.63;88.72;102961.19;5072981;28;20512;-62
2021/12/06 00:36:16;;;;;;;1.23;1.15;;;;;;;-17.48;88.74;102953.44;5073302;28;20143;-62
2021/12/06 00:38:45;;;;;;;1.52;1.42;;;;;;;-17.54;89.54;102958.72;5073125;28;20076;-62
2021/12/06 00:41:15;;;;;;;2.67;1.70;;;;;;;-17.77;88.54;102966.50;5073127;28;20040;-62
2021/12/06 00:43:42;;;;;;;1.70;1.60;;;;;;;-17.53;88.92;102975.38;5072956;28;20151;-62
2021/12/06 00:46:09;;;;;;;1.90;1.50;;;;;;;-17.40;88.88;102953.38;5073094;28;20087;-61
2021/12/06 00:48:36;;;;;;;1.88;1.70;;;;;;;-17.50;89.63;102940.81;5072904;28;20576;-61
2021/12/06 00:51:03;;;;;;;1.20;1.20;;;;;;;-17.41;89.14;102945.81;5073049;28;20045;-61
2021/12/06 00:53:30;;;;;;;1.30;1.20;;;;;;;-17.46;88.64;102939.53;5072698;28;20139;-62
2021/12/06 00:55:57;;;;;;;;;;;;;;;-17.39;89.03;102944.31;5073229;28;20132;-62
2021/12/06 00:58:26;;;;;;;1.10;1.10;;;;;;;-17.45;89.19;102943.75;5072840;28;19964;-62
2021/12/06 01:00:55;;;;;;;3.15;1.60;;;;;;;-17.50;89.03;102938.34;5073406;28;20044;-62
2021/12/06 01:03:25;;;;;;;1.65;1.55;;;;;;;-17.47;89.09;102948.56;5072673;28;20040;-62
2021/12/06 01:05:52;;;;;;;1.30;1.20;;;;;;;-17.44;88.43;102943.91;5072412;28;20045;-62
2021/12/06 01:08:19;;;;;;;;;;;;;;;-17.62;88.99;102950.53;5072953;28;20045;-63
2021/12/06 01:10:48;;;;;;;1.10;1.10;;;;;;;-17.27;88.61;102957.88;5072633;28;20003;-63
2021/12/06 01:13:15;;;;;;;1.02;1.02;;;;;;;-17.42;88.50;102952.38;5072468;28;20453;-62
2021/12/06 01:15:44;;;;;;;2.10;1.88;;;;;;;-17.52;88.13;102952.25;5072606;28;20059;-62
2021/12/06 01:18:14;;;;;;;1.38;1.38;;;;;;;-17.55;88.53;102954.44;5072543;28;20084;-62
2021/12/06 01:20:49;;;;;;;1.92;1.60;;;;;;;-17.72;89.33;102949.50;5072449;28;20076;-62
2021/12/06 01:23:19;;;;;;;1.40;1.30;;;;;;;-17.87;88.69;102944.88;5072558;28;20076;-62
2021/12/06 01:25:55;;;;;;;1.90;1.80;;;;;;;-17.78;89.22;102942.34;5072292;28;20040;-63
2021/12/06 01:29:01;;;;;;;1.43;1.33;;;;;;;-17.79;89.36;102940.63;5072392;28;20049;-62
2021/12/06 01:31:40;;;;;;;2.00;1.80;;;;;;;-17.86;88.06;102936.69;5072167;28;20190;-63
2021/12/06 01:39:08;;;;;;;1.70;1.60;;;;;;;-17.82;88.04;102941.22;5072076;28;20445;-62
2021/12/06 01:39:40;;;;;;;2.42;1.63;;;;;;;-17.84;88.87;102929.38;5072232;28;20117;-62
2021/12/06 01:42:09;;;;;;;2.20;1.73;;;;;;;-17.94;88.20;102931.72;5072071;28;20079;-61
2021/12/06 01:44:38;;;;;;;1.40;1.30;;;;;;;-17.98;89.13;102937.13;5072533;28;20052;-61
2021/12/06 01:47:09;;;;;;;3.70;1.23;;;;;;;-18.02;89.19;102939.31;5072444;28;20139;-62
2021/12/06 01:49:38;;;;;;;1.55;1.45;;;;;;;-18.11;88.66;102922.66;5073296;28;20565;-61
2021/12/06 01:52:08;;;;;;;3.60;1.92;;;;;;;-17.82;89.21;102917.97;5073518;28;20533;-63
2021/12/06 01:54:36;;;;;;;1.13;1.13;;;;;;;-18.02;88.96;102919.44;5072782;28;20056;-63
2021/12/06 01:57:03;;;;;;;1.55;1.45;;;;;;;-17.91;88.35;102922.94;5072941;28;20124;-63
2021/12/06 01:59:31;;;;;;;13.13;2.08;;;;;;;-18.15;88.21;102928.09;5072799;28;20142;-63
2021/12/06 02:01:57;;;;;;;;;;;;;;;-17.95;87.55;102925.88;5073560;28;20127;-63
2021/12/06 02:04:28;;;;;;;1.50;1.30;;;;;;;-17.97;86.84;102919.88;5072399;28;20015;-62
2021/12/06 02:06:55;;;;;;;1.60;1.50;;;;;;;-18.22;86.36;102921.63;5072523;28;20141;-64
2021/12/06 02:09:26;;;;;;;1.25;1.25;;;;;;;-18.35;85.24;102922.06;5071818;28;20083;-62
2021/12/06 02:11:54;;;;;;;1.20;1.20;;;;;;;-18.44;84.92;102926.19;5072014;28;20488;-62
2021/12/06 02:14:29;;;;;;;1.20;1.15;;;;;;;-18.43;84.52;102917.09;5071932;28;20426;-62
2021/12/06 02:17:06;;;;;;;1.35;1.30;;;;;;;-18.60;83.63;102913.84;5071823;28;20086;-62
2021/12/06 02:19:42;;;;;;;0.90;0.90;;;;;;;-18.94;84.87;102914.69;5071673;28;20044;-62
2021/12/06 02:22:13;;;;;;;1.55;1.45;;;;;;;-19.02;85.08;102913.94;5071494;28;20130;-62
2021/12/06 02:24:40;;;;;;;1.30;1.30;;;;;;;-19.03;86.07;102906.34;5071663;28;20131;-62
2021/12/06 02:27:08;;;;;;;;;;;;;;;-18.93;86.98;102909.91;5072259;28;20066;-62
2021/12/06 02:29:35;;;;;;;1.40;1.30;;;;;;;-18.94;88.45;102904.78;5071830;28;19920;-62
2021/12/06 02:32:09;;;;;;;1.10;1.10;;;;;;;-18.73;90.13;102906.81;5071870;28;20041;-62
2021/12/06 02:34:36;;;;;;;1.52;1.42;;;;;;;-18.80;88.88;102897.09;5071671;28;20044;-63
2021/12/06 02:37:03;;;;;;;;;;;;;;;-18.63;89.47;102903.63;5074184;28;20098;-62
2021/12/06 02:39:32;;;;;;;1.27;1.27;;;;;;;-18.26;89.89;102915.50;5075054;28;19959;-62
2021/12/06 02:42:00;;;;;;;1.05;1.05;;;;;;;-18.46;88.39;102916.06;5075110;28;20079;-62
2021/12/06 02:44:27;;;;;;;1.50;1.40;;;;;;;-18.42;88.86;102911.41;5075131;28;20567;-62
2021/12/06 02:46:55;;;;;;;1.05;1.05;;;;;;;-18.71;88.44;102906.97;5075221;28;20128;-62
2021/12/06 02:49:23;;;;;;;1.40;1.30;;;;;;;-18.79;88.83;102913.72;5075413;28;20125;-62
2021/12/06 02:51:51;;;;;;;2.45;1.63;;;;;;;-18.85;89.02;102918.09;5075491;28;20094;-61
2021/12/06 02:54:20;;;;;;;2.40;1.98;;;;;;;-18.83;88.68;102911.66;5075051;28;20056;-62
2021/12/06 02:56:56;;;;;;;2.08;1.60;;;;;;;-18.77;88.92;102909.78;5075251;28;20044;-62
2021/12/06 02:59:26;;;;;;;1.42;1.42;;;;;;;-18.94;88.75;102913.09;5074871;28;20067;-62
2021/12/06 03:01:55;;;;;;;1.20;1.20;;;;;;;-18.96;88.54;102909.56;5075467;28;20048;-61
2021/12/06 03:04:23;;;;;;;1.55;1.45;;;;;;;-18.87;90.15;102903.78;5074686;28;20045;-62
2021/12/06 03:06:54;;;;;;;1.45;1.35;;;;;;;-18.92;89.23;102908.28;5074697;28;20545;-62
2021/12/06 03:09:24;;;;;;;1.35;1.25;;;;;;;-18.93;87.94;102918.91;5074820;28;20045;-62
2021/12/06 03:11:55;;;;;;;1.63;1.52;;;;;;;-19.01;87.96;102918.16;5074770;28;20651;-61
2021/12/06 03:14:26;;;;;;;2.03;1.92;;;;;;;-19.07;88.28;102924.16;5074625;28;20582;-62
2021/12/06 03:16:55;;;;;;;1.40;1.30;;;;;;;-19.21;88.00;102923.66;5074854;28;20090;-62
2021/12/06 03:19:23;;;;;;;1.30;1.30;;;;;;;-18.94;84.98;102922.16;5074497;28;20143;-61
2021/12/06 03:21:51;;;;;;;1.17;1.17;;;;;;;-19.32;84.96;102925.06;5074631;28;20140;-61
2021/12/06 03:24:18;;;;;;;1.38;1.30;;;;;;;-19.51;85.01;102913.16;5074674;28;20079;-61
2021/12/06 03:26:46;;;;;;;1.30;1.20;;;;;;;-19.50;85.16;102910.81;5074516;28;20136;-62
2021/12/06 03:29:15;;;;;;;1.05;1.05;;;;;;;-19.53;84.89;102912.13;5074717;28;20070;-62
2021/12/06 03:31:42;;;;;;;1.20;1.20;;;;;;;-19.41;85.38;102905.91;5074666;28;20474;-61
2021/12/06 03:34:11;;;;;;;1.48;1.38;;;;;;;-19.50;84.94;102903.38;5074575;28;20059;-61
2021/12/06 03:36:39;;;;;;;1.15;1.10;;;;;;;-19.63;85.27;102911.19;5074402;28;20051;-61
2021/12/06 03:39:08;;;;;;;1.42;1.33;;;;;;;-19.36;84.68;102903.16;5074330;28;20584;-62
2021/12/06 03:41:36;;;;;;;0.95;0.95;;;;;;;-19.36;83.31;102909.75;5074285;28;20052;-62
2021/12/06 03:44:02;;;;;;;;;;;;;;;-19.49;82.41;102905.16;5074820;28;20123;-62
2021/12/06 03:46:33;;;;;;;1.10;1.10;;;;;;;-19.64;84.38;102906.97;5074370;28;20027;-62
2021/12/06 03:49:00;;;;;;;1.08;1.08;;;;;;;-19.85;84.99;102908.19;5073853;28;20044;-61
2021/12/06 03:51:27;;;;;;;0.90;0.90;;;;;;;-20.01;85.29;102900.81;5074285;28;20059;-63
2021/12/06 03:53:54;;;;;;;1.10;1.10;;;;;;;-19.87;86.61;102903.81;5073662;28;20060;-62
2021/12/06 03:56:22;;;;;;;1.30;1.30;;;;;;;-19.77;86.39;102901.53;5074098;28;20147;-62
2021/12/06 03:58:49;;;;;;;0.95;0.95;;;;;;;-19.89;86.54;102906.09;5074121;28;20076;-62
2021/12/06 04:01:15;;;;;;;;;;;;;;;-19.69;86.38;102892.38;5074936;28;20071;-62
2021/12/06 04:03:44;;;;;;;1.00;1.00;;;;;;;-19.90;85.56;102893.59;5073819;28;20421;-62
2021/12/06 04:06:13;;;;;;;1.05;1.05;;;;;;;-20.00;86.05;102890.16;5074070;28;20085;-62
2021/12/06 04:08:40;;;;;;;1.02;1.02;;;;;;;-20.09;86.58;102889.22;5074034;28;20438;-61
2021/12/06 04:11:08;;;;;;;1.10;1.10;;;;;;;-20.23;87.39;102891.88;5073653;28;20462;-66
2021/12/06 04:13:35;;;;;;;2.50;1.17;;;;;;;-20.31;87.59;102901.00;5073555;28;20072;-62
2021/12/06 04:16:03;;;;;;;1.25;1.23;;;;;;;-20.25;88.24;102896.66;5073605;28;20045;-62
2021/12/06 04:18:30;;;;;;;1.42;1.42;;;;;;;-20.15;87.49;102910.00;5073415;28;20060;-62
2021/12/06 04:20:58;;;;;;;;;;;;;;;-20.05;86.83;102898.72;5073810;28;20577;-62
2021/12/06 04:23:26;;;;;;;1.52;1.42;;;;;;;-20.02;86.43;102903.97;5073176;28;19920;-62
2021/12/06 04:25:53;;;;;;;1.40;1.40;;;;;;;-20.00;85.27;102906.63;5073530;28;20108;-62
2021/12/06 04:28:21;;;;;;;1.00;1.00;;;;;;;-19.92;84.44;102910.75;5073532;28;20055;-61
2021/12/06 04:30:49;;;;;;;1.15;1.15;;;;;;;-19.96;83.62;102911.16;5073284;28;20135;-62
2021/12/06 04:33:17;;;;;;;1.20;1.20;;;;;;;-20.18;84.00;102902.28;5073315;28;20076;-62
2021/12/06 04:35:45;;;;;;;1.17;1.17;;;;;;;-20.32;84.25;102911.59;5073544;28;20470;-61
2021/12/06 04:38:14;;;;;;;1.10;1.10;;;;;;;-20.19;85.38;102902.97;5073298;28;20051;-62
2021/12/06 04:40:41;;;;;;;1.38;1.33;;;;;;;-20.49;86.44;102899.97;5073071;28;20497;-63
2021/12/06 04:43:08;;;;;;;1.55;1.48;;;;;;;-20.55;86.07;102906.78;5072884;28;20127;-62
2021/12/06 04:45:36;;;;;;;1.15;1.15;;;;;;;-20.43;86.58;102900.59;5072859;28;20045;-63
2021/12/06 04:48:04;;;;;;;2.17;1.92;;;;;;;-20.53;87.24;102894.53;5072800;28;20095;-62
2021/12/06 04:50:33;;;;;;;1.83;1.73;;;;;;;-20.49;86.94;102897.50;5072948;28;20486;-62
2021/12/06 04:53:03;;;;;;;1.10;1.10;;;;;;;-20.32;88.15;102898.34;5072680;28;20506;-63
2021/12/06 04:55:35;;;;;;;1.00;1.00;;;;;;;-20.21;87.58;102895.41;5072821;28;20139;-62
2021/12/06 04:58:05;;;;;;;1.55;1.48;;;;;;;-20.35;86.70;102898.03;5072852;28;20051;-62
2021/12/06 05:00:42;;;;;;;2.13;1.85;;;;;;;-20.44;86.90;102896.38;5072116;28;20059;-63
2021/12/06 05:03:09;;;;;;;1.35;1.30;;;;;;;-20.37;87.27;102894.53;5072383;28;20059;-62
2021/12/06 05:05:41;;;;;;;1.10;1.10;;;;;;;-20.28;86.08;102895.50;5072525;28;20044;-62
2021/12/06 05:08:13;;;;;;;1.15;1.15;;;;;;;-20.04;85.43;102888.06;5072428;28;20068;-61
2021/12/06 05:10:42;;;;;;;3.70;1.30;;;;;;;-20.09;83.92;102891.69;5072700;28;20068;-62
2021/12/06 05:13:10;;;;;;;1.10;1.10;;;;;;;-20.18;83.83;102888.28;5072331;28;20076;-62
2021/12/06 05:15:37;;;;;;;1.17;1.17;;;;;;;-20.19;83.07;102888.13;5072467;28;20403;-62
2021/12/06 05:18:05;;;;;;;1.00;1.00;;;;;;;-20.30;82.01;102885.41;5072236;28;20514;-62
2021/12/06 05:20:34;;;;;;;1.20;1.20;;;;;;;-20.45;81.93;102889.66;5072331;28;20062;-62
2021/12/06 05:23:02;;;;;;;1.50;1.40;;;;;;;-20.53;82.99;102895.41;5072438;28;20041;-62
2021/12/06 05:25:29;;;;;;;1.52;1.42;;;;;;;-20.74;83.77;102880.84;5072422;28;20135;-62
2021/12/06 05:27:59;;;;;;;;;;;;;;;-20.73;84.49;102881.00;5072926;28;20147;-62
2021/12/06 05:30:27;;;;;;;1.05;1.05;;;;;;;-20.57;84.61;102883.50;5072309;28;20014;-62
2021/12/06 05:32:57;;;;;;;1.70;1.50;;;;;;;-20.52;86.27;102877.38;5072043;28;20433;-63
2021/12/06 05:35:25;;;;;;;1.00;1.00;;;;;;;-20.40;87.84;102880.22;5072608;28;20052;-62
2021/12/06 05:37:55;;;;;;;1.10;1.10;;;;;;;-20.32;87.96;102886.84;5072131;28;20131;-62
2021/12/06 05:40:24;;;;;;;1.48;1.40;;;;;;;-20.33;87.71;102876.81;5072211;28;20121;-62
2021/12/06 05:42:52;;;;;;;1.00;1.00;;;;;;;-20.07;88.86;102884.41;5071897;28;20557;-61
2021/12/06 05:45:22;;;;;;;1.40;1.30;;;;;;;-19.90;88.42;102883.66;5072236;28;20040;-62
2021/12/06 05:47:49;;;;;;;1.60;1.50;;;;;;;-19.79;87.69;102888.09;5072190;28;20127;-61
2021/12/06 05:50:17;;;;;;;1.38;1.35;;;;;;;-19.87;87.75;102886.44;5072161;28;20076;-61
2021/12/06 05:52:45;;;;;;;1.00;1.00;;;;;;;-19.93;87.43;102886.72;5071894;28;20051;-62
2021/12/06 05:55:13;;;;;;;1.50;1.40;;;;;;;-19.86;88.15;102889.06;5071735;28;20087;-63
2021/12/06 05:57:41;;;;;;;0.90;0.90;;;;;;;-19.82;88.24;102883.72;5071991;28;20131;-62
2021/12/06 06:00:12;;;;;;;1.20;1.20;;;;;;;-19.85;88.31;102885.88;5071817;28;20091;-62
2021/12/06 06:02:40;;;;;;;1.25;1.25;;;;;;;-19.78;87.50;102882.41;5072210;28;20076;-62
2021/12/06 06:05:08;;;;;;;1.25;1.25;;;;;;;-19.75;87.89;102880.25;5072006;28;20474;-62
2021/12/06 06:07:35;;;;;;;2.13;1.83;;;;;;;-19.56;87.96;102873.91;5072023;28;20072;-62
2021/12/06 06:10:02;;;;;;;;;;;;;;;-19.61;87.76;102870.06;5072914;28;20131;-62
2021/12/06 06:12:29;;;;;;;1.70;1.60;;;;;;;-19.69;87.04;102870.94;5076082;28;19966;-63
2021/12/06 06:14:56;;;;;;;1.02;1.02;;;;;;;-19.66;87.56;102867.91;5075717;28;20135;-62
2021/12/06 06:17:23;;;;;;;;;;;;;;;-19.58;87.77;102867.91;5076579;28;20045;-63
2021/12/06 06:19:54;;;;;;;1.05;1.05;;;;;;;-19.37;87.03;102863.31;5076066;28;19967;-62
2021/12/06 06:22:21;;;;;;;1.20;1.20;;;;;;;-19.22;87.09;102863.97;5075881;28;20101;-62
2021/12/06 06:24:49;;;;;;;1.20;1.20;;;;;;;-19.33;86.47;102860.44;5075551;28;20037;-62
2021/12/06 06:27:16;;;;;;;15.00;1.38;;;;;;;-19.30;86.30;102863.19;5075611;28;20621;-62
2021/12/06 06:29:43;;;;;;;1.67;1.58;;;;;;;-19.35;85.87;102865.22;5075768;28;20143;-61
2021/12/06 06:32:09;;;;;;;;;;;;;;;-19.38;85.76;102862.44;5075922;28;20080;-62
2021/12/06 06:34:36;;;;;;;;;;;;;;;-19.55;85.93;102869.81;5076139;28;20308;-62
2021/12/06 06:37:05;;;;;;;1.00;1.00;;;;;;;-19.75;86.01;102857.97;5075568;28;19935;-61
2021/12/06 06:39:32;;;;;;;1.00;1.00;;;;;;;-19.84;86.42;102854.53;5075683;28;20148;-62
2021/12/06 06:41:58;;;;;;;;;;;;;;;-19.83;85.97;102859.66;5075980;28;20127;-62
2021/12/06 06:44:25;;;;;;;;;;;;;;;-19.89;85.54;102856.53;5075762;28;20015;-62
2021/12/06 06:46:52;;;;;;;1.10;1.10;;;;;;;-19.78;86.29;102856.03;5075517;28;20362;-62
2021/12/06 06:49:21;;;;;;;;;;;;;;;-19.87;86.46;102860.06;5075783;28;20406;-62
2021/12/06 06:51:48;;;;;;;1.10;1.10;;;;;;;-19.78;86.04;102857.63;5075294;28;20362;-63
2021/12/06 06:54:17;;;;;;;1.38;1.38;;;;;;;-19.55;86.28;102858.28;5074922;28;20175;-62
2021/12/06 06:56:44;;;;;;;1.40;1.30;;;;;;;-19.66;86.55;102856.34;5074948;28;20147;-62
2021/12/06 06:59:11;;;;;;;1.20;1.20;;;;;;;-19.69;86.77;102855.22;5075078;28;20136;-62
2021/12/06 07:01:38;;;;;;;1.95;1.40;;;;;;;-19.55;86.40;102848.34;5075448;28;20459;-62
2021/12/06 07:04:05;;;;;;;;;;;;;;;-19.75;86.47;102850.53;5075360;28;20045;-62
2021/12/06 07:06:32;;;;;;;1.50;1.40;;;;;;;-19.86;86.61;102851.88;5075117;28;20010;-62
2021/12/06 07:08:59;;;;;;;;;;;;;;;-19.83;87.19;102844.78;5075244;28;20127;-62
2021/12/06 07:11:28;;;;;;;0.90;0.90;;;;;;;-19.66;86.64;102855.50;5074946;28;19924;-62
2021/12/06 07:13:55;;;;;;;1.00;1.00;;;;;;;-19.61;86.36;102854.34;5074791;28;20055;-62
2021/12/06 07:16:22;;;;;;;2.70;1.17;;;;;;;-19.71;86.54;102856.66;5075074;28;20072;-61
2021/12/06 07:18:49;;;;;;;1.10;1.10;;;;;;;-19.66;86.43;102848.91;5074592;28;20135;-62
2021/12/06 07:21:17;;;;;;;;;;;;;;;-19.52;86.63;102841.97;5075052;28;20135;-62
2021/12/06 07:23:44;;;;;;;1.00;1.00;;;;;;;-19.49;86.37;102844.72;5074028;28;19920;-62
2021/12/06 07:26:15;;;;;;;1.33;1.33;;;;;;;-19.60;86.71;102846.16;5074425;28;20076;-62
2021/12/06 07:28:46;;;;;;;2.72;1.40;;;;;;;-19.79;86.58;102848.44;5074637;28;20068;-62
2021/12/06 07:31:14;;;;;;;1.33;1.33;;;;;;;-20.03;86.84;102845.25;5074238;28;20048;-63
2021/12/06 07:33:42;;;;;;;1.45;1.35;;;;;;;-20.11;87.05;102845.19;5074287;28;20098;-62
2021/12/06 07:36:10;;;;;;;1.63;1.52;;;;;;;-20.20;87.86;102850.09;5074696;28;20136;-62
2021/12/06 07:38:38;;;;;;;1.67;1.52;;;;;;;-20.12;88.06;102844.31;5074636;28;20059;-62
2021/12/06 07:41:07;;;;;;;1.45;1.45;;;;;;;-20.01;87.72;102841.34;5074561;28;20048;-62
2021/12/06 07:43:35;;;;;;;1.20;1.20;;;;;;;-20.04;87.92;102841.00;5074376;28;20391;-62
2021/12/06 07:46:06;;;;;;;1.95;1.85;;;;;;;-20.04;87.89;102843.47;5074230;28;20129;-62
2021/12/06 07:48:33;;;;;;;1.48;1.38;;;;;;;-20.08;87.83;102848.00;5074183;28;20139;-62
2021/12/06 07:51:01;;;;;;;2.25;2.03;;;;;;;-20.06;88.48;102836.63;5073913;28;20049;-62
2021/12/06 07:53:29;;;;;;;1.80;1.70;;;;;;;-20.04;87.60;102835.19;5074075;28;20125;-62
2021/12/06 07:55:57;;;;;;;1.30;1.30;;;;;;;-19.57;87.11;102834.97;5073858;28;20076;-62
2021/12/06 07:58:24;;;;;;;1.98;1.30;;;;;;;-19.52;86.64;102837.88;5073789;28;20068;-62
2021/12/06 08:00:52;;;;;;;1.73;1.63;;;;;;;-19.09;86.05;102839.63;5074405;28;20094;-62
2021/12/06 08:03:22;;;;;;;1.33;1.30;;;;;;;-19.12;85.09;102842.69;5073835;28;20489;-62
2021/12/06 08:05:51;;;;;;;1.27;1.27;;;;;;;-19.10;84.37;102840.34;5074100;28;20099;-62
2021/12/06 08:08:22;;;;;;;1.08;1.08;;;;;;;-19.05;84.74;102841.69;5074058;28;20076;-62
2021/12/06 08:10:55;;;;;;;1.58;1.48;;;;;;;-19.28;84.22;102843.53;5073761;28;20049;-62
2021/12/06 08:13:25;;;;;;;1.00;1.00;;;;;;;-19.16;83.59;102840.66;5073477;28;20045;-62
2021/12/06 08:15:55;;;;;;;1.58;1.48;;;;;;;-19.37;82.25;102831.94;5073659;28;20076;-62
2021/12/06 08:18:23;;;;;;;1.38;1.30;;;;;;;-19.65;82.66;102830.84;5073492;28;20131;-61
2021/12/06 08:20:51;;;;;;;1.30;1.27;;;;;;;-19.75;83.39;102837.22;5073457;28;20864;-62
2021/12/06 08:23:18;;;;;;;1.52;1.42;;;;;;;-19.81;82.86;102832.53;5073515;28;20049;-62
2021/12/06 08:25:47;;;;;;;;;;;;;;;-19.85;83.58;102833.84;5073781;28;20135;-62
2021/12/06 08:28:15;;;;;;;1.23;1.23;;;;;;;-19.71;83.26;102836.81;5073272;28;19924;-63
2021/12/06 08:30:42;;;;;;;1.60;1.50;;;;;;;-19.63;83.66;102823.53;5073333;28;20055;-63
2021/12/06 08:33:08;;;;;;;;;;;;;;;-19.62;83.60;102830.25;5073401;28;20131;-62
2021/12/06 08:35:38;;;;;;;;;;;;;;;-19.64;84.79;102830.09;5072886;28;19926;-61
2021/12/06 08:38:06;;;;;;;1.77;1.67;;;;;;;-19.55;84.83;102825.19;5072938;28;20014;-61
2021/12/06 08:40:34;;;;;;;1.25;1.25;;;;;;;-19.32;84.95;102827.44;5073040;28;20076;-61
2021/12/06 08:43:01;;;;;;;1.20;1.20;;;;;;;-19.24;84.70;102829.06;5072924;28;20044;-62
2021/12/06 08:45:28;;;;;;;;;;;;;;;-19.37;84.56;102822.03;5073846;28;20145;-62
2021/12/06 08:47:55;;;;;;;1.42;1.40;;;;;;;-19.21;84.08;102824.44;5073208;28;20007;-62
2021/12/06 08:50:23;;;;;;;1.30;1.20;;;;;;;-19.21;84.46;102818.56;5072968;28;20143;-62
2021/12/06 08:52:52;;;;;;;1.15;1.15;;;;;;;-19.18;84.81;102819.75;5072890;28;20040;-61
2021/12/06 08:55:20;;;;;;;1.15;1.15;;;;;;;-19.18;84.52;102814.78;5072718;28;20048;-61
2021/12/06 08:57:47;;;;;;;3.35;2.25;;;;;;;-19.28;84.95;102814.63;5072871;28;20124;-60
2021/12/06 09:00:18;;;;;;;1.20;1.10;;;;;;;-19.16;85.23;102817.41;5072480;28;20135;-63
2021/12/06 09:02:46;;;;;;;1.10;1.10;;;;;;;-19.16;84.52;102813.34;5073162;28;20132;-62
2021/12/06 09:05:13;;;;;;;1.10;1.10;;;;;;;-19.17;85.36;102815.66;5072697;28;20079;-62
2021/12/06 09:07:41;;;;;;;2.28;2.08;;;;;;;-19.19;85.44;102809.69;5072710;28;20055;-62
2021/12/06 09:10:12;;;;;;;2.95;2.75;;;;;;;-19.10;85.55;102810.59;5072860;28;20083;-62
2021/12/06 09:12:39;;;;;;;1.70;1.60;;;;;;;-19.24;85.61;102805.88;5072269;28;20090;-62
2021/12/06 09:15:12;;;;;;;1.30;1.25;;;;;;;-19.16;85.77;102805.91;5072162;28;20079;-61
2021/12/06 09:17:39;;;;;;;1.70;1.60;;;;;;;-19.14;85.79;102796.97;5072391;28;20083;-63
2021/12/06 09:20:09;;;;;;;1.92;1.80;;;;;;;-19.16;85.89;102795.09;5072247;28;20044;-62
2021/12/06 09:22:36;;;;;;;2.00;1.90;;;;;;;-19.15;86.37;102796.84;5072348;28;20552;-62
2021/12/06 09:25:05;;;;;;;1.52;1.42;;;;;;;-19.16;86.40;102793.50;5072360;28;20076;-63
2021/12/06 09:27:34;;;;;;;1.58;1.50;;;;;;;-19.01;86.13;102793.22;5072406;28;20542;-62
2021/12/06 09:30:01;;;;;;;1.30;1.20;;;;;;;-18.83;86.69;102784.19;5072167;28;20127;-62
2021/12/06 09:32:28;;;;;;;1.55;1.45;;;;;;;-18.65;86.87;102778.44;5072084;28;20084;-62
2021/12/06 09:34:58;;;;;;;1.48;1.40;;;;;;;-18.70;86.44;102780.50;5072579;28;20143;-61
2021/12/06 09:37:25;;;;;;;1.50;1.40;;;;;;;-18.57;87.04;102780.06;5072572;28;20135;-62
2021/12/06 09:39:53;;;;;;;2.95;2.20;;;;;;;-18.49;86.50;102775.81;5072205;28;20075;-63
2021/12/06 09:42:22;;;;;;;1.70;1.60;;;;;;;-18.38;86.82;102776.81;5071917;28;20095;-62
2021/12/06 09:44:50;;;;;;;2.08;1.98;;;;;;;-18.36;86.66;102766.31;5071672;28;20037;-63
2021/12/06 09:47:17;;;;;;;1.90;1.60;;;;;;;-18.48;87.23;102773.47;5071950;28;20091;-62
2021/12/06 09:49:44;;;;;;;2.28;2.08;;;;;;;-18.31;87.39;102770.09;5072277;28;20045;-62
2021/12/06 09:52:12;;;;;;;2.55;2.35;;;;;;;-18.36;86.55;102766.31;5071894;28;20135;-62
2021/12/06 09:54:41;;;;;;;2.10;2.00;;;;;;;-18.45;85.80;102758.84;5071870;28;20052;-61
2021/12/06 09:57:11;;;;;;;1.13;1.13;;;;;;;-18.39;86.17;102758.56;5073405;28;20108;-63
2021/12/06 09:59:41;;;;;;;2.55;1.85;;;;;;;-18.39;86.79;102761.06;5073630;28;20467;-62
2021/12/06 10:02:12;;;;;;;1.65;1.55;;;;;;;-18.34;85.97;102756.50;5074735;28;20131;-62
2021/12/06 10:04:44;;;;;;;2.65;2.38;;;;;;;-18.28;87.30;102750.50;5073617;28;20144;-63
2021/12/06 10:07:12;;;;;;;1.52;1.42;;;;;;;-18.23;87.22;102753.41;5071865;28;20072;-61
2021/12/06 10:09:42;;;;;;;1.73;1.63;;;;;;;-18.12;87.39;102747.81;5076577;28;20396;-62
2021/12/06 10:12:11;;;;;;;1.83;1.73;;;;;;;-18.07;87.80;102750.72;5086754;28;20052;-61
2021/12/06 10:14:38;;;;;;;1.52;1.42;;;;;;;-17.96;87.02;102749.22;5074086;28;20049;-62
2021/12/06 10:17:05;;;;;;;1.80;1.70;;;;;;;-18.05;87.15;102749.25;5074821;28;20123;-61
2021/12/06 10:19:34;;;;;;;1.90;1.42;;;;;;;-17.98;87.38;102749.06;5092047;28;20040;-62
2021/12/06 10:22:01;;;;;;;1.70;1.60;;;;;;;-18.02;87.25;102745.44;5091645;28;20084;-63
2021/12/06 10:24:29;;;;;;;;;;;;;;;-18.03;86.40;102747.78;5092267;28;20048;-62
2021/12/06 10:27:08;;;;;;;1.65;1.55;;;;;;;-17.92;87.14;102742.19;5077874;28;20019;-62
2021/12/06 10:29:39;;;;;;;1.33;1.33;;;;;;;-17.76;88.09;102738.59;5071817;28;20044;-61
2021/12/06 10:32:13;;;;;;;1.85;1.75;;;;;;;-17.31;89.12;102743.44;5071670;28;20055;-61
2021/12/06 10:34:46;;;;;;;1.55;1.45;;;;;;;-17.39;88.52;102736.19;5071770;28;20157;-65
2021/12/06 10:37:31;;;;;;;1.98;1.73;;;;;;;-17.46;87.51;102731.41;5071502;28;20490;-61
2021/12/06 10:39:59;;;;;;;1.55;1.48;;;;;;;-17.50;87.67;102744.28;5071606;28;20048;-63
2021/12/06 10:42:29;;;;;;;2.13;1.45;;;;;;;-17.47;87.60;102737.09;5072471;28;20099;-63
2021/12/06 10:45:01;;;;;;;1.65;1.48;;;;;;;-17.40;87.50;102738.53;5092344;28;20101;-64
2021/12/06 10:47:28;;;;;;;1.58;1.48;;;;;;;-17.47;87.80;102736.22;5092027;28;20486;-62
2021/12/06 10:50:07;;;;;;;1.60;1.50;;;;;;;-17.59;86.48;102739.38;5091829;28;20139;-61
2021/12/06 10:52:34;;;;;;;1.73;1.63;;;;;;;-17.42;87.30;102740.00;5091496;28;20048;-62
2021/12/06 10:55:01;;;;;;;;;;;;;;;-17.42;86.75;102737.50;5092651;28;20070;-61
2021/12/06 10:57:42;;;;;;;;;;;;;;;-17.45;88.49;102737.25;5093264;28;20062;-62
2021/12/06 11:00:28;;;;;;;1.55;1.45;;;;;;;-17.39;87.28;102738.69;5095293;28;20464;-61
2021/12/06 11:02:55;;;;;;;8.63;1.93;;;;;;;-17.50;86.61;102734.34;5095862;28;20131;-61
2021/12/06 11:05:26;;;;;;;1.90;1.63;;;;;;;-17.59;87.34;102731.91;5095203;28;20051;-61
2021/12/06 11:07:58;;;;;;;1.77;1.20;;;;;;;-17.62;87.23;102735.72;5095042;28;20514;-62
2021/12/06 11:10:26;;;;;;;1.77;1.65;;;;;;;-17.41;87.83;102727.72;5095025;28;20138;-62
2021/12/06 11:13:20;;;;;;;1.60;1.50;;;;;;;-17.33;87.93;102727.53;5095152;28;20048;-62
2021/12/06 11:16:00;;;;;;;2.00;1.48;;;;;;;-17.48;86.53;102727.88;5095275;28;20052;-61
2021/12/06 11:18:37;;;;;;;1.90;1.58;;;;;;;-17.37;87.10;102731.34;5078025;28;20131;-62
2021/12/06 11:21:06;;;;;;;;;;;;;;;-17.58;87.08;102723.69;5074818;28;20049;-62
2021/12/06 11:23:33;;;;;;;1.20;1.20;;;;;;;-17.58;86.31;102725.31;5074819;28;19963;-62
2021/12/06 11:26:04;;;;;;;1.42;1.33;;;;;;;-17.52;86.51;102723.38;5074540;28;20094;-63
2021/12/06 11:28:33;;;;;;;2.08;1.80;;;;;;;-17.65;86.67;102716.41;5074544;28;20056;-62
2021/12/06 11:31:03;;;;;;;1.60;1.50;;;;;;;-17.69;86.38;102718.50;5074463;28;20041;-62
2021/12/06 11:33:33;;;;;;;5.07;1.63;;;;;;;-17.81;86.28;102713.31;5073887;28;20068;-62
2021/12/06 11:36:01;;;;;;;3.50;1.90;;;;;;;-17.91;86.40;102710.75;5074146;28;20095;-62